createdAt,value
2022-10-22T00:00:49.153Z,10.60
2022-10-22T00:03:17.227Z,10.63
2022-10-22T00:05:44.977Z,10.69
2022-10-22T00:08:12.954Z,10.61
2022-10-22T00:10:41.987Z,10.59
2022-10-22T00:13:11.173Z,10.62
2022-10-22T00:15:39.020Z,10.50
2022-10-22T00:18:06.907Z,10.55
2022-10-22T00:20:34.453Z,10.50
2022-10-22T00:23:02.153Z,10.60
2022-10-22T00:25:31.083Z,10.56
2022-10-22T00:27:58.570Z,10.52
2022-10-22T00:30:26.089Z,10.44
2022-10-22T00:32:55.320Z,10.40
2022-10-22T00:35:22.974Z,10.38
2022-10-22T00:37:50.618Z,10.38
2022-10-22T00:40:18.706Z,10.30
2022-10-22T00:42:46.271Z,10.44
2022-10-22T00:45:27.447Z,10.47
2022-10-22T00:47:59.706Z,10.40
2022-10-22T00:50:34.540Z,10.29
2022-10-22T00:53:04.864Z,10.32
2022-10-22T00:55:36.100Z,10.33
2022-10-22T00:58:13.790Z,10.38
2022-10-22T01:00:42.098Z,10.37
2022-10-22T01:03:10.119Z,10.36
2022-10-22T01:05:43.802Z,10.37
2022-10-22T01:08:20.395Z,10.37
2022-10-22T01:11:35.949Z,10.35
2022-10-22T01:14:28.519Z,10.21
2022-10-22T01:17:05.023Z,10.35
2022-10-22T01:19:54.638Z,10.40
2022-10-22T01:22:29.001Z,10.41
2022-10-22T01:24:59.975Z,10.41
2022-10-22T01:27:35.709Z,10.37
2022-10-22T01:30:08.716Z,10.34
2022-10-22T01:32:40.916Z,10.40
2022-10-22T01:35:11.203Z,10.43
2022-10-22T01:37:48.402Z,10.33
2022-10-22T01:40:17.293Z,10.39
2022-10-22T01:42:58.844Z,10.40
2022-10-22T01:45:28.983Z,10.63
2022-10-22T01:48:05.638Z,10.46
2022-10-22T01:50:43.221Z,10.47
2022-10-22T01:53:49.267Z,10.51
2022-10-22T01:56:22.927Z,10.32
2022-10-22T01:59:03.113Z,10.23
2022-10-22T02:01:54.677Z,10.29
2022-10-22T02:04:41.182Z,10.07
2022-10-22T02:07:12.623Z,10.00
2022-10-22T02:09:41.301Z,9.97
2022-10-22T02:12:09.491Z,10.26
2022-10-22T02:14:39.362Z,10.11
2022-10-22T02:17:10.305Z,9.96
2022-10-22T02:19:42.169Z,9.96
2022-10-22T02:22:10.162Z,10.00
2022-10-22T02:24:37.737Z,9.91
2022-10-22T02:27:25.943Z,10.03
2022-10-22T02:30:10.775Z,9.88
2022-10-22T02:32:55.668Z,9.89
2022-10-22T02:35:26.446Z,9.94
2022-10-22T02:37:55.529Z,10.04
2022-10-22T02:40:24.154Z,10.11
2022-10-22T02:42:51.768Z,10.09
2022-10-22T02:45:20.259Z,10.12
2022-10-22T02:47:48.538Z,10.04
2022-10-22T02:50:16.511Z,9.88
2022-10-22T02:52:44.191Z,9.77
2022-10-22T02:55:12.038Z,9.74
2022-10-22T02:57:39.905Z,9.94
2022-10-22T03:00:09.038Z,9.77
2022-10-22T03:02:36.898Z,9.75
2022-10-22T03:05:05.309Z,9.74
2022-10-22T03:07:33.532Z,9.68
2022-10-22T03:10:01.525Z,9.73
2022-10-22T03:12:30.640Z,9.57
2022-10-22T03:14:58.274Z,9.64
2022-10-22T03:17:26.501Z,9.52
2022-10-22T03:19:54.125Z,9.53
2022-10-22T03:22:24.119Z,9.55
2022-10-22T03:24:54.996Z,9.39
2022-10-22T03:27:23.299Z,9.43
2022-10-22T03:29:52.577Z,9.27
2022-10-22T03:32:20.397Z,9.29
2022-10-22T03:34:48.096Z,9.23
2022-10-22T03:37:15.879Z,9.14
2022-10-22T03:39:44.160Z,9.23
2022-10-22T03:42:11.866Z,9.28
2022-10-22T03:44:40.626Z,9.28
2022-10-22T03:47:08.509Z,9.22
2022-10-22T03:49:36.122Z,9.15
2022-10-22T03:52:07.765Z,9.26
2022-10-22T03:54:36.353Z,9.17
2022-10-22T03:57:05.404Z,9.15
2022-10-22T03:59:40.836Z,9.07
2022-10-22T04:02:09.180Z,9.22
2022-10-22T04:04:37.400Z,9.28
2022-10-22T04:07:06.306Z,9.19
2022-10-22T04:09:34.938Z,9.20
2022-10-22T04:12:02.974Z,9.31
2022-10-22T04:14:30.691Z,9.22
2022-10-22T04:16:58.315Z,9.20
2022-10-22T04:19:26.349Z,9.20
2022-10-22T04:21:53.948Z,8.86
2022-10-22T04:24:21.607Z,8.74
2022-10-22T04:26:49.535Z,9.02
2022-10-22T04:29:17.654Z,8.98
2022-10-22T04:31:46.983Z,9.00
2022-10-22T04:34:16.119Z,8.93
2022-10-22T04:36:44.442Z,8.84
2022-10-22T04:39:12.621Z,8.75
2022-10-22T04:41:40.587Z,8.85
2022-10-22T04:44:12.235Z,8.86
2022-10-22T04:46:44.012Z,8.83
2022-10-22T04:49:11.699Z,8.66
2022-10-22T04:51:39.355Z,8.59
2022-10-22T04:54:07.301Z,8.30
2022-10-22T04:56:34.876Z,8.44
2022-10-22T04:59:05.088Z,8.36
2022-10-22T05:01:38.453Z,8.54
2022-10-22T05:04:12.683Z,8.42
2022-10-22T05:06:40.820Z,8.45
2022-10-22T05:09:12.678Z,8.14
2022-10-22T05:11:42.141Z,8.31
2022-10-22T05:14:10.430Z,8.23
2022-10-22T05:16:38.745Z,8.20
2022-10-22T05:19:07.490Z,8.44
2022-10-22T05:21:35.526Z,8.32
2022-10-22T05:24:03.241Z,8.31
2022-10-22T05:26:31.633Z,8.38
2022-10-22T05:28:59.306Z,8.32
2022-10-22T05:31:27.056Z,8.41
2022-10-22T05:33:55.703Z,8.39
2022-10-22T05:36:23.520Z,8.37
2022-10-22T05:38:51.247Z,8.40
2022-10-22T05:41:22.218Z,8.43
2022-10-22T05:43:50.158Z,8.44
2022-10-22T05:46:22.567Z,8.43
2022-10-22T05:49:02.007Z,8.57
2022-10-22T05:51:32.882Z,8.56
2022-10-22T05:54:04.323Z,8.61
2022-10-22T05:56:32.684Z,8.57
2022-10-22T06:01:34.424Z,8.87
2022-10-22T06:04:08.400Z,8.77
2022-10-22T06:06:47.899Z,8.90
2022-10-22T06:09:21.379Z,9.02
2022-10-22T06:11:49.566Z,9.10
2022-10-22T06:14:18.630Z,9.06
2022-10-22T06:16:46.547Z,9.21
2022-10-22T06:19:16.593Z,9.29
2022-10-22T06:21:47.922Z,9.35
2022-10-22T06:24:16.040Z,9.33
2022-10-22T06:26:43.980Z,9.47
2022-10-22T06:29:12.165Z,9.45
2022-10-22T06:31:39.840Z,9.46
2022-10-22T06:34:11.554Z,9.56
2022-10-22T06:36:39.315Z,9.52
2022-10-22T06:39:07.225Z,9.73
2022-10-22T06:41:34.820Z,9.74
2022-10-22T06:44:02.481Z,9.80
2022-10-22T06:46:33.192Z,9.95
2022-10-22T06:49:02.088Z,10.03
2022-10-22T06:51:30.175Z,10.15
2022-10-22T06:53:58.353Z,10.28
2022-10-22T06:56:27.227Z,10.31
2022-10-22T06:58:56.649Z,10.45
2022-10-22T07:01:30.192Z,10.59
2022-10-22T07:03:58.503Z,10.82
2022-10-22T07:06:28.665Z,10.96
2022-10-22T07:08:58.381Z,10.96
2022-10-22T07:11:45.698Z,11.12
2022-10-22T07:14:14.197Z,11.21
2022-10-22T07:16:42.118Z,11.42
2022-10-22T07:19:09.778Z,11.37
2022-10-22T07:21:37.527Z,11.42
2022-10-22T07:24:05.890Z,11.60
2022-10-22T07:26:34.214Z,11.66
2022-10-22T07:29:06.170Z,11.69
2022-10-22T07:31:51.424Z,11.71
2022-10-22T07:36:48.029Z,11.64
2022-10-22T07:39:18.107Z,11.68
2022-10-22T07:41:45.851Z,11.80
2022-10-22T07:44:16.257Z,11.76
2022-10-22T07:46:48.059Z,11.80
2022-10-22T07:49:17.013Z,11.89
2022-10-22T07:51:44.638Z,11.89
2022-10-22T07:54:12.248Z,11.99
2022-10-22T07:56:40.145Z,12.03
2022-10-22T07:59:07.778Z,12.40
2022-10-22T08:01:35.347Z,12.47
2022-10-22T08:04:03.319Z,12.42
2022-10-22T08:06:31.531Z,12.66
2022-10-22T08:09:00.510Z,12.86
2022-10-22T08:11:30.865Z,12.96
2022-10-22T08:13:58.476Z,13.06
2022-10-22T08:16:26.118Z,13.21
2022-10-22T08:18:54.017Z,13.50
2022-10-22T08:21:21.639Z,13.55
2022-10-22T08:23:49.209Z,13.52
2022-10-22T08:26:19.590Z,13.67
2022-10-22T08:28:47.188Z,13.89
2022-10-22T08:31:17.761Z,13.97
2022-10-22T08:33:46.126Z,13.99
2022-10-22T08:36:13.844Z,14.14
2022-10-22T08:38:41.430Z,14.32
2022-10-22T08:41:20.871Z,14.34
2022-10-22T08:44:00.443Z,14.82
2022-10-22T08:46:52.732Z,14.99
2022-10-22T08:49:26.626Z,14.78
2022-10-22T08:51:56.565Z,15.24
2022-10-22T08:54:47.255Z,15.36
2022-10-22T08:57:20.325Z,15.27
2022-10-22T08:59:56.919Z,15.04
2022-10-22T09:02:44.121Z,14.99
2022-10-22T09:05:20.958Z,15.00
2022-10-22T09:07:50.307Z,15.05
2022-10-22T09:10:24.487Z,15.01
2022-10-22T09:12:52.492Z,14.79
2022-10-22T09:15:20.958Z,14.98
2022-10-22T09:18:00.410Z,14.76
2022-10-22T09:20:42.922Z,14.64
2022-10-22T09:23:13.498Z,14.76
2022-10-22T09:25:42.306Z,14.60
2022-10-22T09:28:10.224Z,14.86
2022-10-22T09:30:38.870Z,14.87
2022-10-22T09:33:15.726Z,14.53
2022-10-22T09:35:46.124Z,14.73
2022-10-22T09:38:16.229Z,14.76
2022-10-22T09:40:46.345Z,14.89
2022-10-22T09:43:14.397Z,14.91
2022-10-22T09:45:42.990Z,14.76
2022-10-22T09:48:23.784Z,14.80
2022-10-22T09:50:56.358Z,15.14
2022-10-22T09:53:29.995Z,15.05
2022-10-22T09:56:00.296Z,14.96
2022-10-22T09:58:28.476Z,14.96
2022-10-22T10:00:58.694Z,14.75
2022-10-22T10:03:28.636Z,14.85
2022-10-22T10:06:04.772Z,14.77
2022-10-22T10:08:34.328Z,14.72
2022-10-22T10:11:05.639Z,14.84
2022-10-22T10:13:57.644Z,15.09
2022-10-22T10:17:05.189Z,14.82
2022-10-22T10:19:49.840Z,14.73
2022-10-22T10:22:39.677Z,14.98
2022-10-22T10:25:25.841Z,15.01
2022-10-22T10:27:58.516Z,14.89
2022-10-22T10:30:26.261Z,15.13
2022-10-22T10:33:12.997Z,15.08
2022-10-22T10:36:02.050Z,15.26
2022-10-22T10:38:46.423Z,15.41
2022-10-22T10:41:14.041Z,15.33
2022-10-22T10:43:50.795Z,15.23
2022-10-22T10:46:47.742Z,15.43
2022-10-22T10:49:26.950Z,15.00
2022-10-22T10:52:09.845Z,15.25
2022-10-22T10:54:55.048Z,15.42
2022-10-22T10:57:31.701Z,15.67
2022-10-22T11:00:10.704Z,15.82
2022-10-22T11:03:03.124Z,15.69
2022-10-22T11:05:42.208Z,15.59
2022-10-22T11:08:19.452Z,15.75
2022-10-22T11:10:53.830Z,15.42
2022-10-22T11:13:32.045Z,15.44
2022-10-22T11:16:20.164Z,15.37
2022-10-22T11:18:51.790Z,15.75
2022-10-22T11:21:47.683Z,15.51
2022-10-22T11:24:41.701Z,15.46
2022-10-22T11:28:02.663Z,15.42
2022-10-22T11:30:35.891Z,15.52
2022-10-22T11:33:07.591Z,15.17
2022-10-22T11:35:37.831Z,15.40
2022-10-22T11:38:06.931Z,15.44
2022-10-22T11:40:48.984Z,15.63
2022-10-22T11:43:28.934Z,15.72
2022-10-22T11:46:22.376Z,15.64
2022-10-22T11:49:05.630Z,15.69
2022-10-22T11:51:38.200Z,15.86
2022-10-22T11:54:35.612Z,16.01
2022-10-22T11:57:15.393Z,16.26
2022-10-22T12:00:12.219Z,16.19
2022-10-22T12:02:39.625Z,16.35
2022-10-22T12:05:33.274Z,16.44
2022-10-22T12:08:16.387Z,16.38
2022-10-22T12:11:10.361Z,16.40
2022-10-22T12:13:56.541Z,16.07
2022-10-22T12:16:37.719Z,15.85
2022-10-22T12:19:24.090Z,16.15
2022-10-22T12:21:58.224Z,16.36
2022-10-22T12:24:30.756Z,16.44
2022-10-22T12:26:58.698Z,16.53
2022-10-22T12:29:26.362Z,16.74
2022-10-22T12:31:54.066Z,16.59
2022-10-22T12:34:24.181Z,16.81
2022-10-22T12:36:54.539Z,16.70
2022-10-22T12:39:26.003Z,16.63
2022-10-22T12:41:54.530Z,16.62
2022-10-22T12:44:22.640Z,16.64
2022-10-22T12:46:54.434Z,16.61
2022-10-22T12:49:36.885Z,16.24
2022-10-22T12:52:09.848Z,16.13
2022-10-22T12:54:40.799Z,16.07
2022-10-22T12:57:13.979Z,16.14
2022-10-22T12:59:48.751Z,16.47
2022-10-22T13:02:26.411Z,16.51
2022-10-22T13:05:20.617Z,16.63
2022-10-22T13:07:51.452Z,16.63
2022-10-22T13:10:38.213Z,16.47
2022-10-22T13:13:06.051Z,16.51
2022-10-22T13:15:38.539Z,16.60
2022-10-22T13:18:16.740Z,16.48
2022-10-22T13:20:58.269Z,16.45
2022-10-22T13:23:26.331Z,16.10
2022-10-22T13:25:57.714Z,16.08
2022-10-22T13:28:25.862Z,16.00
2022-10-22T13:30:54.480Z,16.17
2022-10-22T13:33:23.954Z,16.15
2022-10-22T13:35:52.509Z,16.32
2022-10-22T13:38:22.497Z,16.17
2022-10-22T13:40:51.123Z,15.96
2022-10-22T13:43:19.078Z,16.02
2022-10-22T13:45:48.019Z,16.03
2022-10-22T13:48:18.506Z,16.18
2022-10-22T13:50:46.411Z,16.16
2022-10-22T13:53:25.803Z,16.35
2022-10-22T13:55:53.882Z,16.28
2022-10-22T13:58:23.231Z,16.15
2022-10-22T14:01:00.748Z,16.07
2022-10-22T14:03:32.069Z,15.84
2022-10-22T14:06:00.347Z,15.96
2022-10-22T14:08:28.590Z,15.79
2022-10-22T14:10:56.211Z,15.80
2022-10-22T14:13:23.837Z,15.81
2022-10-22T14:15:52.290Z,15.81
2022-10-22T14:18:23.308Z,15.87
2022-10-22T14:20:52.628Z,15.85
2022-10-22T14:23:21.748Z,15.87
2022-10-22T14:25:49.406Z,15.85
2022-10-22T14:28:17.513Z,16.07
2022-10-22T14:30:46.191Z,16.00
2022-10-22T14:33:27.225Z,15.78
2022-10-22T14:36:00.389Z,15.74
2022-10-22T14:38:28.770Z,15.68
2022-10-22T14:40:57.061Z,15.48
2022-10-22T14:43:29.705Z,15.53
2022-10-22T14:45:57.994Z,15.33
2022-10-22T14:48:26.343Z,15.33
2022-10-22T14:50:54.516Z,15.36
2022-10-22T14:53:22.165Z,15.23
2022-10-22T14:55:50.148Z,15.24
2022-10-22T14:58:18.027Z,15.11
2022-10-22T15:00:45.756Z,15.16
2022-10-22T15:03:13.730Z,15.18
2022-10-22T15:05:42.485Z,14.97
2022-10-22T15:08:11.096Z,14.91
2022-10-22T15:10:39.333Z,14.83
2022-10-22T15:13:07.047Z,14.77
2022-10-22T15:15:39.528Z,14.76
2022-10-22T15:18:08.216Z,14.90
2022-10-22T15:20:58.283Z,14.81
2022-10-22T15:23:26.669Z,14.68
2022-10-22T15:25:54.423Z,14.67
2022-10-22T15:28:22.182Z,14.68
2022-10-22T15:30:59.205Z,14.61
2022-10-22T15:33:27.822Z,14.71
2022-10-22T15:35:56.630Z,14.62
2022-10-22T15:41:06.687Z,14.41
2022-10-22T15:43:35.980Z,14.45
2022-10-22T15:46:15.591Z,14.41
2022-10-22T15:48:43.563Z,14.25
2022-10-22T15:51:17.100Z,14.37
2022-10-22T15:53:51.053Z,14.37
2022-10-22T15:56:21.504Z,14.31
2022-10-22T15:58:54.900Z,14.39
2022-10-22T16:01:23.172Z,14.33
2022-10-22T16:03:52.049Z,14.41
2022-10-22T16:06:19.933Z,14.23
2022-10-22T16:08:47.844Z,14.17
2022-10-22T16:11:15.943Z,14.16
2022-10-22T16:13:43.730Z,14.07
2022-10-22T16:16:11.365Z,14.08
2022-10-22T16:18:39.563Z,14.05
2022-10-22T16:21:12.339Z,13.99
2022-10-22T16:23:41.517Z,13.88
2022-10-22T16:26:09.212Z,14.02
2022-10-22T16:28:36.779Z,13.94
2022-10-22T16:31:06.446Z,13.76
2022-10-22T16:33:41.344Z,13.65
2022-10-22T16:36:16.133Z,13.60
2022-10-22T16:38:44.633Z,13.51
2022-10-22T16:41:15.072Z,13.49
2022-10-22T16:43:44.627Z,13.51
2022-10-22T16:46:13.954Z,13.47
2022-10-22T16:48:48.980Z,13.40
2022-10-22T16:51:19.973Z,13.33
2022-10-22T16:53:47.788Z,13.26
2022-10-22T16:56:16.700Z,13.17
2022-10-22T16:58:47.086Z,13.25
2022-10-22T17:01:17.998Z,12.84
2022-10-22T17:03:49.694Z,12.83
2022-10-22T17:06:17.488Z,12.87
2022-10-22T17:08:45.839Z,12.64
2022-10-22T17:11:16.252Z,12.59
2022-10-22T17:13:48.126Z,12.40
2022-10-22T17:16:17.751Z,12.54
2022-10-22T17:18:47.924Z,12.67
2022-10-22T17:21:17.820Z,12.62
2022-10-22T17:23:46.236Z,12.50
2022-10-22T17:26:19.701Z,12.55
2022-10-22T17:28:49.928Z,12.48
2022-10-22T17:31:20.198Z,12.45
2022-10-22T17:33:49.818Z,12.58
2022-10-22T17:36:18.501Z,12.40
2022-10-22T17:38:49.687Z,12.49
2022-10-22T17:41:20.571Z,12.47
2022-10-22T17:43:48.705Z,12.26
2022-10-22T17:46:21.955Z,12.27
2022-10-22T17:48:54.907Z,12.29
2022-10-22T17:51:24.134Z,12.26
2022-10-22T17:53:52.587Z,12.26
2022-10-22T17:56:30.050Z,12.22
2022-10-22T17:58:58.181Z,12.29
2022-10-22T18:01:32.551Z,12.16
2022-10-22T18:04:02.679Z,11.99
2022-10-22T18:06:30.689Z,12.12
2022-10-22T18:08:58.549Z,12.07
2022-10-22T18:11:27.631Z,12.06
2022-10-22T18:13:56.782Z,11.98
2022-10-22T18:16:25.540Z,11.99
2022-10-22T18:18:55.384Z,11.89
2022-10-22T18:21:25.656Z,11.88
2022-10-22T18:23:54.233Z,11.91
2022-10-22T18:26:25.877Z,11.86
2022-10-22T18:28:56.775Z,11.92
2022-10-22T18:31:26.630Z,11.86
2022-10-22T18:36:28.166Z,11.70
2022-10-22T18:38:59.864Z,11.86
2022-10-22T18:41:29.956Z,11.92
2022-10-22T18:44:00.747Z,11.76
2022-10-22T18:46:31.101Z,11.71
2022-10-22T18:48:59.293Z,11.76
2022-10-22T18:51:29.004Z,11.65
2022-10-22T18:54:05.164Z,11.68
2022-10-22T18:56:45.609Z,11.66
2022-10-22T18:59:19.086Z,11.73
2022-10-22T19:01:46.959Z,11.84
2022-10-22T19:04:14.971Z,11.80
2022-10-22T19:06:45.256Z,11.65
2022-10-22T19:09:15.147Z,11.56
2022-10-22T19:11:44.749Z,11.66
2022-10-22T19:14:13.819Z,11.49
2022-10-22T19:16:41.957Z,11.56
2022-10-22T19:19:11.483Z,11.73
2022-10-22T19:21:39.389Z,11.54
2022-10-22T19:24:07.303Z,11.60
2022-10-22T19:26:35.342Z,11.56
2022-10-22T19:29:04.028Z,11.62
2022-10-22T19:31:32.184Z,11.57
2022-10-22T19:34:01.191Z,11.44
2022-10-22T19:36:30.179Z,11.47
2022-10-22T19:38:59.096Z,11.47
2022-10-22T19:41:28.536Z,11.32
2022-10-22T19:43:58.036Z,11.42
2022-10-22T19:46:27.871Z,11.42
2022-10-22T19:48:56.138Z,11.42
2022-10-22T19:51:28.723Z,11.42
2022-10-22T19:53:58.702Z,11.28
2022-10-22T19:56:27.325Z,11.34
2022-10-22T19:58:55.322Z,11.29
2022-10-22T20:01:26.859Z,11.35
2022-10-22T20:03:55.080Z,11.28
2022-10-22T20:06:22.940Z,11.17
2022-10-22T20:08:53.796Z,11.00
2022-10-22T20:11:26.412Z,11.06
2022-10-22T20:13:56.169Z,10.96
2022-10-22T20:16:26.876Z,10.88
2022-10-22T20:18:54.670Z,10.93
2022-10-22T20:21:22.422Z,10.93
2022-10-22T20:23:54.289Z,10.77
2022-10-22T20:26:22.208Z,10.96
2022-10-22T20:28:51.409Z,10.62
2022-10-22T20:31:21.587Z,10.65
2022-10-22T20:33:49.900Z,10.62
2022-10-22T20:36:20.675Z,10.54
2022-10-22T20:38:48.855Z,10.55
2022-10-22T20:41:23.337Z,10.55
2022-10-22T20:43:51.995Z,10.58
2022-10-22T20:46:29.150Z,10.50
2022-10-22T20:49:00.978Z,10.44
2022-10-22T20:51:28.864Z,10.59
2022-10-22T20:53:56.791Z,10.66
2022-10-22T20:56:24.853Z,10.68
2022-10-22T20:58:52.511Z,10.61
2022-10-22T21:01:20.891Z,10.58
2022-10-22T21:03:50.829Z,10.65
2022-10-22T21:06:19.509Z,10.68
2022-10-22T21:08:47.125Z,10.67
2022-10-22T21:11:15.255Z,10.72
2022-10-22T21:13:42.962Z,10.79
2022-10-22T21:16:12.519Z,10.74
2022-10-22T21:18:40.663Z,10.66
2022-10-22T21:21:09.107Z,10.59
2022-10-22T21:23:36.996Z,10.48
2022-10-22T21:26:05.497Z,10.50
2022-10-22T21:28:35.283Z,10.47
2022-10-22T21:31:08.390Z,10.39
2022-10-22T21:33:39.476Z,10.48
2022-10-22T21:36:08.351Z,10.43
2022-10-22T21:38:37.414Z,10.43
2022-10-22T21:41:06.977Z,10.60
2022-10-22T21:43:37.216Z,10.30
2022-10-22T21:46:18.463Z,10.25
2022-10-22T21:48:46.173Z,10.34
2022-10-22T21:51:18.763Z,10.29
2022-10-22T21:53:47.106Z,10.40
2022-10-22T21:56:20.176Z,10.63
2022-10-22T21:58:48.012Z,10.73
2022-10-22T22:01:16.151Z,10.76
2022-10-22T22:03:46.127Z,10.79
2022-10-22T22:06:13.703Z,10.76
2022-10-22T22:08:41.730Z,10.87
2022-10-22T22:11:12.296Z,10.89
2022-10-22T22:13:40.328Z,10.98
2022-10-22T22:16:10.513Z,11.16
2022-10-22T22:18:39.448Z,11.11
2022-10-22T22:21:09.773Z,11.11
2022-10-22T22:23:39.028Z,11.06
2022-10-22T22:26:07.174Z,11.07
2022-10-22T22:28:35.619Z,11.09
2022-10-22T22:31:14.999Z,11.07
2022-10-22T22:33:42.978Z,11.03
2022-10-22T22:36:10.899Z,11.06
2022-10-22T22:38:38.991Z,10.97
2022-10-22T22:41:07.790Z,11.06
2022-10-22T22:43:36.132Z,10.91
2022-10-22T22:46:06.250Z,10.97
2022-10-22T22:48:34.686Z,11.10
2022-10-22T22:51:04.040Z,10.91
2022-10-22T22:53:31.845Z,10.98
2022-10-22T22:56:21.044Z,10.99
2022-10-22T22:58:48.998Z,10.96
2022-10-22T23:01:18.203Z,10.91
2022-10-22T23:03:53.475Z,10.95
2022-10-22T23:06:21.546Z,10.92
2022-10-22T23:08:50.352Z,10.88
2022-10-22T23:11:18.789Z,10.83
2022-10-22T23:13:46.999Z,10.65
2022-10-22T23:16:18.414Z,10.80
2022-10-22T23:18:47.930Z,10.82
2022-10-22T23:21:23.900Z,10.77
2022-10-22T23:23:54.303Z,10.53
2022-10-22T23:26:25.466Z,10.49
2022-10-22T23:28:53.415Z,10.52
2022-10-22T23:31:21.480Z,10.64
2022-10-22T23:33:49.352Z,10.42
2022-10-22T23:36:17.270Z,10.47
2022-10-22T23:38:44.876Z,10.45
2022-10-22T23:41:12.574Z,10.45
2022-10-22T23:43:40.524Z,10.33
2022-10-22T23:46:10.152Z,10.31
2022-10-22T23:48:38.436Z,10.24
2022-10-22T23:51:14.609Z,10.14
2022-10-22T23:53:43.684Z,10.03
2022-10-22T23:56:15.161Z,9.99
2022-10-22T23:58:42.816Z,10.04
